JA69KM RPVB-RPVM
Flight info
| Callsign | JA69KM |
|---|---|
| Flight time | 0h 24m |
| Altitude | 13000 |
| Route | VICTA2A VICTA B473 DUDAR DUDAR3P |
| Aircraft | SF50/L-SBDGRWY/LB2U2 |
Departure
| Time | 2026-05-05 12:43 |
|---|---|
| Airport | Bacolod-Silay International Airport (RPVB) |
Arrival
| Time | 2026-05-05 13:08 |
|---|---|
| Airport | Mactan Cebu International Airport (RPVM) |
| Time | Latitude | Longitude | Altitude | Speed | Heading |
|---|---|---|---|---|---|
| 2026-05-05 12:29 | 10.77275 | 123.01374 | 80 ft | 0 kts | 30° |
| 2026-05-05 12:39 | 10.77290 | 123.01388 | 87 ft | 6 kts | 50° |
| 2026-05-05 12:39 | 10.77316 | 123.01428 | 80 ft | 7 kts | 89° |
| 2026-05-05 12:39 | 10.77328 | 123.01463 | 82 ft | 6 kts | 33° |
| 2026-05-05 12:40 | 10.77364 | 123.01484 | 86 ft | 5 kts | 30° |
| 2026-05-05 12:40 | 10.77364 | 123.01522 | 88 ft | 9 kts | 127° |
| 2026-05-05 12:40 | 10.77332 | 123.01574 | 88 ft | 9 kts | 119° |
| 2026-05-05 12:40 | 10.77302 | 123.01631 | 87 ft | 9 kts | 129° |
| 2026-05-05 12:41 | 10.77242 | 123.01657 | 90 ft | 10 kts | 189° |
| 2026-05-05 12:41 | 10.77182 | 123.01627 | 88 ft | 10 kts | 210° |
| 2026-05-05 12:41 | 10.77119 | 123.01589 | 90 ft | 11 kts | 210° |
| 2026-05-05 12:41 | 10.77047 | 123.01547 | 91 ft | 13 kts | 210° |
| 2026-05-05 12:42 | 10.76966 | 123.01496 | 91 ft | 13 kts | 224° |
| 2026-05-05 12:42 | 10.76917 | 123.01440 | 90 ft | 8 kts | 181° |
| 2026-05-05 12:42 | 10.76915 | 123.01469 | 89 ft | 4 kts | 28° |
| 2026-05-05 12:42 | 10.76917 | 123.01470 | 90 ft | 0 kts | 30° |
| 2026-05-05 12:43 | 10.77130 | 123.01594 | 92 ft | 70 kts | 29° |
| 2026-05-05 12:43 | 10.77692 | 123.01921 | 255 ft | 108 kts | 30° |
| 2026-05-05 12:43 | 10.78134 | 123.02163 | 610 ft | 106 kts | 31° |
| 2026-05-05 12:43 | 10.79022 | 123.02662 | 1016 ft | 120 kts | 32° |
| 2026-05-05 12:44 | 10.79790 | 123.03077 | 1420 ft | 131 kts | 31° |
| 2026-05-05 12:44 | 10.80627 | 123.03522 | 1886 ft | 139 kts | 31° |
| 2026-05-05 12:44 | 10.81510 | 123.03987 | 2294 ft | 151 kts | 30° |
| 2026-05-05 12:44 | 10.82466 | 123.04486 | 2745 ft | 159 kts | 33° |
| 2026-05-05 12:45 | 10.83427 | 123.05091 | 3207 ft | 164 kts | 37° |
| 2026-05-05 12:45 | 10.84396 | 123.05748 | 3621 ft | 171 kts | 38° |
| 2026-05-05 12:45 | 10.85422 | 123.06373 | 4137 ft | 174 kts | 28° |
| 2026-05-05 12:45 | 10.86523 | 123.06911 | 4657 ft | 176 kts | 29° |
| 2026-05-05 12:46 | 10.87627 | 123.07453 | 5135 ft | 178 kts | 29° |
| 2026-05-05 12:46 | 10.88746 | 123.07995 | 5611 ft | 179 kts | 28° |
| 2026-05-05 12:46 | 10.89884 | 123.08540 | 6055 ft | 182 kts | 28° |
| 2026-05-05 12:46 | 10.91036 | 123.09077 | 6539 ft | 183 kts | 27° |
| 2026-05-05 12:47 | 10.92160 | 123.09685 | 6962 ft | 183 kts | 40° |
| 2026-05-05 12:47 | 10.92990 | 123.10643 | 7418 ft | 180 kts | 61° |
| 2026-05-05 12:47 | 10.93427 | 123.11809 | 7901 ft | 177 kts | 81° |
| 2026-05-05 12:47 | 10.93431 | 123.13064 | 8319 ft | 178 kts | 101° |
| 2026-05-05 12:48 | 10.92993 | 123.14251 | 8719 ft | 182 kts | 121° |
| 2026-05-05 12:48 | 10.92147 | 123.15203 | 9201 ft | 182 kts | 140° |
| 2026-05-05 12:48 | 10.91052 | 123.15868 | 9637 ft | 185 kts | 148° |
| 2026-05-05 12:48 | 10.89926 | 123.16539 | 9991 ft | 189 kts | 148° |
| 2026-05-05 12:49 | 10.88784 | 123.17216 | 10375 ft | 191 kts | 148° |
| 2026-05-05 12:49 | 10.87631 | 123.17894 | 10757 ft | 192 kts | 148° |
| 2026-05-05 12:49 | 10.86466 | 123.18575 | 11143 ft | 194 kts | 148° |
| 2026-05-05 12:49 | 10.85293 | 123.19263 | 11515 ft | 195 kts | 148° |
| 2026-05-05 12:50 | 10.84109 | 123.19960 | 11887 ft | 197 kts | 148° |
| 2026-05-05 12:50 | 10.82914 | 123.20655 | 12238 ft | 199 kts | 148° |
| 2026-05-05 12:50 | 10.81708 | 123.21357 | 12600 ft | 200 kts | 148° |
| 2026-05-05 12:50 | 10.80515 | 123.22063 | 12905 ft | 205 kts | 148° |
| 2026-05-05 12:51 | 10.79228 | 123.22822 | 12919 ft | 222 kts | 148° |
| 2026-05-05 12:51 | 10.77843 | 123.23635 | 12926 ft | 236 kts | 148° |
| 2026-05-05 12:51 | 10.76383 | 123.24489 | 12925 ft | 247 kts | 148° |
| 2026-05-05 12:51 | 10.74871 | 123.25373 | 12927 ft | 254 kts | 149° |
| 2026-05-05 12:52 | 10.73404 | 123.26382 | 12921 ft | 255 kts | 137° |
| 2026-05-05 12:52 | 10.72109 | 123.27627 | 12928 ft | 258 kts | 136° |
| 2026-05-05 12:53 | 10.67989 | 123.31427 | 12931 ft | 263 kts | 136° |
| 2026-05-05 12:53 | 10.66639 | 123.32683 | 12931 ft | 263 kts | 136° |
| 2026-05-05 12:53 | 10.65286 | 123.33939 | 12930 ft | 264 kts | 136° |
| 2026-05-05 12:53 | 10.63927 | 123.35195 | 12931 ft | 264 kts | 136° |
| 2026-05-05 12:54 | 10.61213 | 123.37712 | 12917 ft | 264 kts | 136° |
| 2026-05-05 12:54 | 10.59860 | 123.38967 | 12917 ft | 264 kts | 136° |
| 2026-05-05 12:54 | 10.58503 | 123.40225 | 12925 ft | 264 kts | 136° |
| 2026-05-05 12:55 | 10.57163 | 123.41467 | 12922 ft | 264 kts | 136° |
| 2026-05-05 12:55 | 10.55807 | 123.42721 | 12916 ft | 264 kts | 136° |
| 2026-05-05 12:55 | 10.54436 | 123.43996 | 12773 ft | 270 kts | 136° |
| 2026-05-05 12:55 | 10.53035 | 123.45292 | 12626 ft | 274 kts | 136° |
| 2026-05-05 12:56 | 10.51621 | 123.46602 | 12480 ft | 277 kts | 136° |
| 2026-05-05 12:56 | 10.50192 | 123.47923 | 12326 ft | 279 kts | 136° |
| 2026-05-05 12:56 | 10.48758 | 123.49252 | 12200 ft | 280 kts | 136° |
| 2026-05-05 12:56 | 10.47306 | 123.50598 | 11907 ft | 287 kts | 136° |
| 2026-05-05 12:57 | 10.45814 | 123.51979 | 11510 ft | 291 kts | 136° |
| 2026-05-05 12:57 | 10.44337 | 123.53344 | 11133 ft | 283 kts | 136° |
| 2026-05-05 12:57 | 10.42885 | 123.54690 | 10774 ft | 282 kts | 136° |
| 2026-05-05 12:57 | 10.41431 | 123.56035 | 10402 ft | 283 kts | 136° |
| 2026-05-05 12:58 | 10.39985 | 123.57375 | 10038 ft | 280 kts | 136° |
| 2026-05-05 12:58 | 10.38557 | 123.58696 | 9667 ft | 276 kts | 136° |
| 2026-05-05 12:58 | 10.37141 | 123.60004 | 9303 ft | 275 kts | 136° |
| 2026-05-05 12:58 | 10.35724 | 123.61316 | 8939 ft | 276 kts | 136° |
| 2026-05-05 12:59 | 10.34318 | 123.62633 | 8577 ft | 273 kts | 134° |
| 2026-05-05 12:59 | 10.32981 | 123.63998 | 8217 ft | 271 kts | 134° |
| 2026-05-05 12:59 | 10.31669 | 123.65331 | 7893 ft | 261 kts | 134° |
| 2026-05-05 13:00 | 10.29131 | 123.67910 | 7254 ft | 257 kts | 134° |
| 2026-05-05 13:00 | 10.27877 | 123.69187 | 6918 ft | 254 kts | 134° |
| 2026-05-05 13:01 | 10.24157 | 123.72970 | 5918 ft | 251 kts | 133° |
| 2026-05-05 13:01 | 10.22946 | 123.74202 | 5597 ft | 249 kts | 133° |
| 2026-05-05 13:01 | 10.21722 | 123.75444 | 5268 ft | 249 kts | 134° |
| 2026-05-05 13:01 | 10.20499 | 123.76685 | 4945 ft | 248 kts | 134° |
| 2026-05-05 13:02 | 10.19281 | 123.77929 | 4618 ft | 248 kts | 133° |
| 2026-05-05 13:02 | 10.18300 | 123.79344 | 4284 ft | 244 kts | 116° |
| 2026-05-05 13:02 | 10.17760 | 123.80927 | 3967 ft | 224 kts | 101° |
| 2026-05-05 13:02 | 10.17639 | 123.82421 | 3681 ft | 202 kts | 88° |
| 2026-05-05 13:03 | 10.17838 | 123.83759 | 3426 ft | 189 kts | 75° |
| 2026-05-05 13:03 | 10.18293 | 123.84984 | 3185 ft | 183 kts | 63° |
| 2026-05-05 13:03 | 10.18974 | 123.86065 | 2941 ft | 181 kts | 52° |
| 2026-05-05 13:03 | 10.19832 | 123.86975 | 2706 ft | 176 kts | 44° |
| 2026-05-05 13:04 | 10.20693 | 123.87834 | 2465 ft | 172 kts | 46° |
| 2026-05-05 13:04 | 10.21520 | 123.88670 | 2405 ft | 162 kts | 45° |
| 2026-05-05 13:04 | 10.22281 | 123.89426 | 2319 ft | 148 kts | 45° |
| 2026-05-05 13:04 | 10.23021 | 123.90137 | 2085 ft | 146 kts | 43° |
| 2026-05-05 13:05 | 10.23759 | 123.90834 | 1843 ft | 144 kts | 44° |
| 2026-05-05 13:05 | 10.24477 | 123.91537 | 1621 ft | 142 kts | 45° |
| 2026-05-05 13:05 | 10.25151 | 123.92243 | 1431 ft | 136 kts | 47° |
| 2026-05-05 13:05 | 10.25794 | 123.92938 | 1223 ft | 135 kts | 47° |
| 2026-05-05 13:06 | 10.26455 | 123.93609 | 1057 ft | 134 kts | 44° |
| 2026-05-05 13:06 | 10.26902 | 123.94038 | 949 ft | 133 kts | 44° |
| 2026-05-05 13:06 | 10.27535 | 123.94685 | 759 ft | 120 kts | 45° |
| 2026-05-05 13:06 | 10.28064 | 123.95227 | 588 ft | 100 kts | 45° |
| 2026-05-05 13:07 | 10.28698 | 123.95846 | 367 ft | 90 kts | 47° |
| 2026-05-05 13:07 | 10.28980 | 123.96141 | 278 ft | 87 kts | 46° |
| 2026-05-05 13:07 | 10.29403 | 123.96581 | 149 ft | 85 kts | 44° |
| 2026-05-05 13:07 | 10.29806 | 123.96987 | 45 ft | 78 kts | 45° |
| 2026-05-05 13:08 | 10.30136 | 123.97321 | 28 ft | 56 kts | 44° |
| 2026-05-05 13:08 | 10.30432 | 123.97618 | 31 ft | 37 kts | 45° |
| 2026-05-05 13:08 | 10.30546 | 123.97734 | 30 ft | 32 kts | 44° |
| 2026-05-05 13:08 | 10.30677 | 123.97896 | 29 ft | 13 kts | 102° |
| 2026-05-05 13:09 | 10.30651 | 123.97940 | 29 ft | 9 kts | 136° |
| 2026-05-05 13:09 | 10.30608 | 123.97981 | 31 ft | 5 kts | 136° |
| 2026-05-05 13:09 | 10.30592 | 123.97998 | 31 ft | 5 kts | 142° |
| 2026-05-05 13:09 | 10.30555 | 123.97997 | 31 ft | 6 kts | 202° |
| 2026-05-05 13:10 | 10.30515 | 123.97966 | 31 ft | 8 kts | 226° |
| 2026-05-05 13:10 | 10.30470 | 123.97921 | 31 ft | 10 kts | 224° |
| 2026-05-05 13:10 | 10.30420 | 123.97871 | 31 ft | 9 kts | 224° |
| 2026-05-05 13:10 | 10.30382 | 123.97834 | 32 ft | 7 kts | 224° |
| 2026-05-05 13:11 | 10.30347 | 123.97797 | 32 ft | 7 kts | 225° |
| 2026-05-05 13:11 | 10.30310 | 123.97760 | 32 ft | 8 kts | 224° |
| 2026-05-05 13:11 | 10.30272 | 123.97722 | 32 ft | 8 kts | 224° |
| 2026-05-05 13:11 | 10.30231 | 123.97681 | 32 ft | 8 kts | 224° |
| 2026-05-05 13:12 | 10.30188 | 123.97638 | 32 ft | 9 kts | 224° |
| 2026-05-05 13:12 | 10.30143 | 123.97592 | 32 ft | 9 kts | 224° |
| 2026-05-05 13:12 | 10.30095 | 123.97544 | 32 ft | 10 kts | 224° |
| 2026-05-05 13:12 | 10.30043 | 123.97493 | 31 ft | 11 kts | 224° |
| 2026-05-05 13:13 | 10.29992 | 123.97442 | 31 ft | 9 kts | 223° |
| 2026-05-05 13:13 | 10.29976 | 123.97456 | 31 ft | 4 kts | 126° |
| 2026-05-05 13:13 | 10.29946 | 123.97458 | 32 ft | 7 kts | 226° |
| 2026-05-05 13:13 | 10.29909 | 123.97422 | 32 ft | 8 kts | 224° |
| 2026-05-05 13:14 | 10.29869 | 123.97381 | 32 ft | 9 kts | 226° |
| 2026-05-05 13:14 | 10.29828 | 123.97338 | 32 ft | 8 kts | 226° |
| 2026-05-05 13:14 | 10.29789 | 123.97321 | 32 ft | 5 kts | 114° |
| 2026-05-05 13:14 | 10.29795 | 123.97334 | 32 ft | 0 kts | 44° |